sensor_id;sensor_type;location;lat;lon;timestamp;P1;durP1;ratioP1;P2;durP2;ratioP2
34741;SDS011;20968;42.696;23.360;2023-05-20T00:04:26;11.27;;;7.75;;
34741;SDS011;20968;42.696;23.360;2023-05-20T00:13:30;18.17;;;9.43;;
34741;SDS011;20968;42.696;23.360;2023-05-20T00:26:25;21.70;;;9.15;;
34741;SDS011;20968;42.696;23.360;2023-05-20T00:51:33;21.58;;;9.05;;
34741;SDS011;20968;42.696;23.360;2023-05-20T01:07:48;13.43;;;8.40;;
34741;SDS011;20968;42.696;23.360;2023-05-20T01:38:17;14.15;;;8.50;;
34741;SDS011;20968;42.696;23.360;2023-05-20T01:44:10;19.67;;;9.25;;
34741;SDS011;20968;42.696;23.360;2023-05-20T01:54:18;17.70;;;7.95;;
34741;SDS011;20968;42.696;23.360;2023-05-20T02:13:37;12.93;;;7.32;;
34741;SDS011;20968;42.696;23.360;2023-05-20T02:27:26;20.55;;;9.98;;
34741;SDS011;20968;42.696;23.360;2023-05-20T02:30:19;16.58;;;8.48;;
34741;SDS011;20968;42.696;23.360;2023-05-20T02:36:23;14.00;;;8.18;;
34741;SDS011;20968;42.696;23.360;2023-05-20T02:42:40;17.02;;;9.38;;
34741;SDS011;20968;42.696;23.360;2023-05-20T02:45:54;16.17;;;8.20;;
34741;SDS011;20968;42.696;23.360;2023-05-20T02:52:09;16.90;;;9.43;;
34741;SDS011;20968;42.696;23.360;2023-05-20T02:55:01;18.00;;;8.50;;
34741;SDS011;20968;42.696;23.360;2023-05-20T02:58:00;15.48;;;8.57;;
34741;SDS011;20968;42.696;23.360;2023-05-20T03:01:13;18.55;;;8.15;;
34741;SDS011;20968;42.696;23.360;2023-05-20T03:14:10;23.60;;;9.40;;
34741;SDS011;20968;42.696;23.360;2023-05-20T03:16:36;29.70;;;10.02;;
34741;SDS011;20968;42.696;23.360;2023-05-20T03:23:07;22.73;;;11.05;;
34741;SDS011;20968;42.696;23.360;2023-05-20T03:25:50;27.05;;;10.60;;
34741;SDS011;20968;42.696;23.360;2023-05-20T03:39:29;18.30;;;9.57;;
34741;SDS011;20968;42.696;23.360;2023-05-20T03:45:57;19.90;;;9.00;;
34741;SDS011;20968;42.696;23.360;2023-05-20T04:02:41;14.05;;;7.70;;
34741;SDS011;20968;42.696;23.360;2023-05-20T04:08:45;15.82;;;8.10;;
34741;SDS011;20968;42.696;23.360;2023-05-20T04:15:19;12.05;;;7.63;;
34741;SDS011;20968;42.696;23.360;2023-05-20T04:18:28;17.20;;;8.60;;
34741;SDS011;20968;42.696;23.360;2023-05-20T04:31:04;15.43;;;8.32;;
34741;SDS011;20968;42.696;23.360;2023-05-20T04:41:06;19.98;;;8.70;;
34741;SDS011;20968;42.696;23.360;2023-05-20T04:47:12;13.10;;;9.43;;
34741;SDS011;20968;42.696;23.360;2023-05-20T04:50:24;16.20;;;9.10;;
34741;SDS011;20968;42.696;23.360;2023-05-20T04:53:33;21.05;;;11.00;;
34741;SDS011;20968;42.696;23.360;2023-05-20T04:56:50;14.85;;;8.95;;
34741;SDS011;20968;42.696;23.360;2023-05-20T04:59:27;25.58;;;10.68;;
34741;SDS011;20968;42.696;23.360;2023-05-20T05:05:56;24.27;;;11.18;;
34741;SDS011;20968;42.696;23.360;2023-05-20T05:08:50;28.15;;;11.48;;
34741;SDS011;20968;42.696;23.360;2023-05-20T05:11:45;31.20;;;12.68;;
34741;SDS011;20968;42.696;23.360;2023-05-20T05:17:51;11.70;;;7.57;;
34741;SDS011;20968;42.696;23.360;2023-05-20T05:20:17;15.75;;;7.97;;
34741;SDS011;20968;42.696;23.360;2023-05-20T05:22:43;16.75;;;10.73;;
34741;SDS011;20968;42.696;23.360;2023-05-20T05:28:06;17.00;;;9.13;;
34741;SDS011;20968;42.696;23.360;2023-05-20T05:30:32;15.50;;;7.22;;
34741;SDS011;20968;42.696;23.360;2023-05-20T05:32:59;18.48;;;8.05;;
34741;SDS011;20968;42.696;23.360;2023-05-20T05:35:26;14.43;;;8.80;;
34741;SDS011;20968;42.696;23.360;2023-05-20T05:37:54;11.63;;;6.00;;
34741;SDS011;20968;42.696;23.360;2023-05-20T05:40:23;7.57;;;5.75;;
34741;SDS011;20968;42.696;23.360;2023-05-20T05:42:49;7.90;;;5.72;;
34741;SDS011;20968;42.696;23.360;2023-05-20T05:45:14;7.53;;;5.63;;
34741;SDS011;20968;42.696;23.360;2023-05-20T05:47:41;9.50;;;4.97;;
34741;SDS011;20968;42.696;23.360;2023-05-20T05:50:09;9.55;;;5.40;;
34741;SDS011;20968;42.696;23.360;2023-05-20T05:52:39;9.95;;;5.78;;
34741;SDS011;20968;42.696;23.360;2023-05-20T05:55:11;12.50;;;6.85;;
34741;SDS011;20968;42.696;23.360;2023-05-20T05:57:44;10.50;;;6.05;;
34741;SDS011;20968;42.696;23.360;2023-05-20T06:00:13;8.50;;;5.90;;
34741;SDS011;20968;42.696;23.360;2023-05-20T06:02:40;8.23;;;5.43;;
34741;SDS011;20968;42.696;23.360;2023-05-20T06:05:06;13.10;;;6.63;;
34741;SDS011;20968;42.696;23.360;2023-05-20T06:07:36;12.40;;;6.65;;
34741;SDS011;20968;42.696;23.360;2023-05-20T06:10:02;13.45;;;7.43;;
34741;SDS011;20968;42.696;23.360;2023-05-20T06:12:34;15.73;;;6.90;;
34741;SDS011;20968;42.696;23.360;2023-05-20T06:15:03;22.20;;;11.32;;
34741;SDS011;20968;42.696;23.360;2023-05-20T06:17:31;12.18;;;7.70;;
34741;SDS011;20968;42.696;23.360;2023-05-20T06:19:57;15.48;;;8.02;;
34741;SDS011;20968;42.696;23.360;2023-05-20T06:22:25;15.38;;;7.30;;
34741;SDS011;20968;42.696;23.360;2023-05-20T06:24:56;13.13;;;6.80;;
34741;SDS011;20968;42.696;23.360;2023-05-20T06:29:49;9.90;;;6.97;;
34741;SDS011;20968;42.696;23.360;2023-05-20T06:32:16;11.00;;;6.63;;
34741;SDS011;20968;42.696;23.360;2023-05-20T06:34:49;9.20;;;6.50;;
34741;SDS011;20968;42.696;23.360;2023-05-20T06:42:40;15.05;;;5.90;;
34741;SDS011;20968;42.696;23.360;2023-05-20T06:45:07;16.20;;;5.47;;
34741;SDS011;20968;42.696;23.360;2023-05-20T06:50:25;11.25;;;6.70;;
34741;SDS011;20968;42.696;23.360;2023-05-20T06:53:03;10.52;;;6.57;;
34741;SDS011;20968;42.696;23.360;2023-05-20T06:55:52;9.38;;;6.53;;
34741;SDS011;20968;42.696;23.360;2023-05-20T06:59:04;19.75;;;11.30;;
34741;SDS011;20968;42.696;23.360;2023-05-20T07:01:43;11.63;;;7.05;;
34741;SDS011;20968;42.696;23.360;2023-05-20T07:04:09;11.18;;;5.28;;
34741;SDS011;20968;42.696;23.360;2023-05-20T07:06:37;8.27;;;5.03;;
34741;SDS011;20968;42.696;23.360;2023-05-20T07:09:09;8.48;;;5.70;;
34741;SDS011;20968;42.696;23.360;2023-05-20T07:14:08;9.00;;;5.75;;
34741;SDS011;20968;42.696;23.360;2023-05-20T07:16:50;9.00;;;5.90;;
34741;SDS011;20968;42.696;23.360;2023-05-20T07:19:27;12.15;;;7.13;;
34741;SDS011;20968;42.696;23.360;2023-05-20T07:22:15;10.02;;;5.35;;
34741;SDS011;20968;42.696;23.360;2023-05-20T07:34:25;6.30;;;4.38;;
34741;SDS011;20968;42.696;23.360;2023-05-20T07:36:51;11.55;;;4.60;;
34741;SDS011;20968;42.696;23.360;2023-05-20T07:39:20;6.28;;;4.15;;
34741;SDS011;20968;42.696;23.360;2023-05-20T07:42:24;9.27;;;5.22;;
34741;SDS011;20968;42.696;23.360;2023-05-20T07:44:50;6.28;;;4.18;;
34741;SDS011;20968;42.696;23.360;2023-05-20T07:47:38;9.00;;;4.38;;
34741;SDS011;20968;42.696;23.360;2023-05-20T07:50:04;10.45;;;4.70;;
34741;SDS011;20968;42.696;23.360;2023-05-20T08:02:21;7.28;;;4.82;;
34741;SDS011;20968;42.696;23.360;2023-05-20T08:04:54;4.70;;;3.78;;
34741;SDS011;20968;42.696;23.360;2023-05-20T08:10:53;11.10;;;4.78;;
34741;SDS011;20968;42.696;23.360;2023-05-20T08:13:22;7.63;;;4.65;;
34741;SDS011;20968;42.696;23.360;2023-05-20T08:15:48;9.50;;;5.35;;
34741;SDS011;20968;42.696;23.360;2023-05-20T08:18:14;9.13;;;4.00;;
34741;SDS011;20968;42.696;23.360;2023-05-20T08:20:40;9.02;;;4.55;;
34741;SDS011;20968;42.696;23.360;2023-05-20T08:23:06;6.75;;;4.07;;
34741;SDS011;20968;42.696;23.360;2023-05-20T08:25:32;6.72;;;3.85;;
34741;SDS011;20968;42.696;23.360;2023-05-20T08:28:00;9.68;;;4.28;;
34741;SDS011;20968;42.696;23.360;2023-05-20T08:30:27;12.68;;;4.35;;
34741;SDS011;20968;42.696;23.360;2023-05-20T08:32:53;6.88;;;4.28;;
34741;SDS011;20968;42.696;23.360;2023-05-20T08:35:18;5.20;;;3.92;;
34741;SDS011;20968;42.696;23.360;2023-05-20T08:37:44;8.65;;;4.15;;
34741;SDS011;20968;42.696;23.360;2023-05-20T08:40:09;6.18;;;3.63;;
34741;SDS011;20968;42.696;23.360;2023-05-20T08:42:39;5.68;;;3.78;;
34741;SDS011;20968;42.696;23.360;2023-05-20T08:45:10;11.93;;;5.03;;
34741;SDS011;20968;42.696;23.360;2023-05-20T08:47:38;6.35;;;4.00;;
34741;SDS011;20968;42.696;23.360;2023-05-20T08:50:07;6.70;;;3.95;;
34741;SDS011;20968;42.696;23.360;2023-05-20T08:52:35;6.95;;;4.40;;
34741;SDS011;20968;42.696;23.360;2023-05-20T08:55:10;5.55;;;3.78;;
34741;SDS011;20968;42.696;23.360;2023-05-20T08:58:01;4.28;;;3.50;;
34741;SDS011;20968;42.696;23.360;2023-05-20T09:00:27;5.40;;;3.88;;
34741;SDS011;20968;42.696;23.360;2023-05-20T09:02:53;4.57;;;3.80;;
34741;SDS011;20968;42.696;23.360;2023-05-20T09:05:20;10.85;;;4.25;;
34741;SDS011;20968;42.696;23.360;2023-05-20T09:07:49;7.30;;;4.72;;
34741;SDS011;20968;42.696;23.360;2023-05-20T09:10:15;7.00;;;4.43;;
34741;SDS011;20968;42.696;23.360;2023-05-20T09:12:41;6.30;;;4.45;;
34741;SDS011;20968;42.696;23.360;2023-05-20T09:15:09;6.72;;;3.97;;
34741;SDS011;20968;42.696;23.360;2023-05-20T09:17:48;6.25;;;4.18;;
34741;SDS011;20968;42.696;23.360;2023-05-20T09:20:13;12.80;;;4.15;;
34741;SDS011;20968;42.696;23.360;2023-05-20T09:22:41;6.72;;;3.95;;
34741;SDS011;20968;42.696;23.360;2023-05-20T09:25:26;4.57;;;3.80;;
34741;SDS011;20968;42.696;23.360;2023-05-20T09:27:52;6.15;;;3.95;;
34741;SDS011;20968;42.696;23.360;2023-05-20T09:30:19;5.25;;;3.97;;
34741;SDS011;20968;42.696;23.360;2023-05-20T09:32:51;5.80;;;3.92;;
34741;SDS011;20968;42.696;23.360;2023-05-20T09:35:17;5.38;;;4.05;;
34741;SDS011;20968;42.696;23.360;2023-05-20T09:38:03;6.00;;;4.60;;
34741;SDS011;20968;42.696;23.360;2023-05-20T09:40:32;11.18;;;4.10;;
34741;SDS011;20968;42.696;23.360;2023-05-20T09:43:23;4.63;;;3.70;;
34741;SDS011;20968;42.696;23.360;2023-05-20T09:45:54;9.07;;;3.70;;
34741;SDS011;20968;42.696;23.360;2023-05-20T09:48:31;15.05;;;4.32;;
34741;SDS011;20968;42.696;23.360;2023-05-20T09:51:00;7.55;;;4.10;;
34741;SDS011;20968;42.696;23.360;2023-05-20T09:53:26;5.75;;;3.75;;
34741;SDS011;20968;42.696;23.360;2023-05-20T09:55:53;13.50;;;4.90;;
34741;SDS011;20968;42.696;23.360;2023-05-20T09:58:20;12.52;;;3.83;;
34741;SDS011;20968;42.696;23.360;2023-05-20T10:00:46;5.93;;;3.88;;
34741;SDS011;20968;42.696;23.360;2023-05-20T10:03:12;6.65;;;4.00;;
34741;SDS011;20968;42.696;23.360;2023-05-20T10:05:40;6.47;;;4.05;;
34741;SDS011;20968;42.696;23.360;2023-05-20T10:21:38;10.93;;;3.70;;
34741;SDS011;20968;42.696;23.360;2023-05-20T10:24:07;5.15;;;3.55;;
34741;SDS011;20968;42.696;23.360;2023-05-20T10:26:34;5.20;;;3.10;;
34741;SDS011;20968;42.696;23.360;2023-05-20T10:29:13;5.18;;;3.28;;
34741;SDS011;20968;42.696;23.360;2023-05-20T10:31:48;4.88;;;3.50;;
34741;SDS011;20968;42.696;23.360;2023-05-20T10:34:15;6.65;;;4.57;;
34741;SDS011;20968;42.696;23.360;2023-05-20T10:36:44;6.60;;;3.72;;
34741;SDS011;20968;42.696;23.360;2023-05-20T10:39:18;3.50;;;2.80;;
34741;SDS011;20968;42.696;23.360;2023-05-20T10:41:50;4.15;;;2.63;;
34741;SDS011;20968;42.696;23.360;2023-05-20T10:44:15;6.05;;;4.10;;
34741;SDS011;20968;42.696;23.360;2023-05-20T10:46:41;10.48;;;3.65;;
34741;SDS011;20968;42.696;23.360;2023-05-20T10:49:16;4.55;;;2.78;;
34741;SDS011;20968;42.696;23.360;2023-05-20T10:51:45;3.08;;;2.75;;
34741;SDS011;20968;42.696;23.360;2023-05-20T10:54:11;6.43;;;3.80;;
34741;SDS011;20968;42.696;23.360;2023-05-20T10:56:38;4.18;;;3.13;;
34741;SDS011;20968;42.696;23.360;2023-05-20T10:59:05;5.85;;;3.72;;
34741;SDS011;20968;42.696;23.360;2023-05-20T11:01:30;6.97;;;3.72;;
34741;SDS011;20968;42.696;23.360;2023-05-20T11:03:56;8.18;;;3.67;;
34741;SDS011;20968;42.696;23.360;2023-05-20T11:06:25;5.20;;;2.95;;
34741;SDS011;20968;42.696;23.360;2023-05-20T11:09:02;5.85;;;3.75;;
34741;SDS011;20968;42.696;23.360;2023-05-20T11:11:31;10.63;;;3.75;;
34741;SDS011;20968;42.696;23.360;2023-05-20T11:13:57;7.00;;;3.25;;
34741;SDS011;20968;42.696;23.360;2023-05-20T11:16:24;6.07;;;3.78;;
34741;SDS011;20968;42.696;23.360;2023-05-20T11:18:50;6.68;;;3.30;;
34741;SDS011;20968;42.696;23.360;2023-05-20T11:21:16;6.00;;;3.78;;
34741;SDS011;20968;42.696;23.360;2023-05-20T11:23:44;4.25;;;3.38;;
34741;SDS011;20968;42.696;23.360;2023-05-20T11:26:09;9.68;;;3.38;;
34741;SDS011;20968;42.696;23.360;2023-05-20T11:28:35;6.50;;;3.58;;
34741;SDS011;20968;42.696;23.360;2023-05-20T11:31:00;9.75;;;3.90;;
34741;SDS011;20968;42.696;23.360;2023-05-20T11:33:26;4.95;;;3.33;;
34741;SDS011;20968;42.696;23.360;2023-05-20T11:35:52;8.82;;;3.72;;
34741;SDS011;20968;42.696;23.360;2023-05-20T11:38:18;6.40;;;3.70;;
34741;SDS011;20968;42.696;23.360;2023-05-20T11:43:36;3.97;;;2.72;;
34741;SDS011;20968;42.696;23.360;2023-05-20T11:46:01;3.80;;;2.97;;
34741;SDS011;20968;42.696;23.360;2023-05-20T11:48:29;4.40;;;3.20;;
34741;SDS011;20968;42.696;23.360;2023-05-20T11:50:55;5.50;;;3.05;;
34741;SDS011;20968;42.696;23.360;2023-05-20T11:53:21;9.73;;;3.75;;
34741;SDS011;20968;42.696;23.360;2023-05-20T11:55:49;5.38;;;3.88;;
34741;SDS011;20968;42.696;23.360;2023-05-20T11:58:18;10.32;;;3.92;;
34741;SDS011;20968;42.696;23.360;2023-05-20T12:03:42;13.00;;;3.35;;
34741;SDS011;20968;42.696;23.360;2023-05-20T12:06:11;5.72;;;2.72;;
34741;SDS011;20968;42.696;23.360;2023-05-20T12:08:37;6.75;;;3.58;;
34741;SDS011;20968;42.696;23.360;2023-05-20T12:11:03;8.32;;;3.50;;
34741;SDS011;20968;42.696;23.360;2023-05-20T12:13:32;13.38;;;3.33;;
34741;SDS011;20968;42.696;23.360;2023-05-20T12:16:24;6.63;;;3.58;;
34741;SDS011;20968;42.696;23.360;2023-05-20T12:19:38;5.20;;;3.70;;
34741;SDS011;20968;42.696;23.360;2023-05-20T12:24:56;7.03;;;4.13;;
34741;SDS011;20968;42.696;23.360;2023-05-20T12:33:10;5.50;;;2.97;;
34741;SDS011;20968;42.696;23.360;2023-05-20T12:36:04;4.70;;;3.72;;
34741;SDS011;20968;42.696;23.360;2023-05-20T12:38:31;5.65;;;3.40;;
34741;SDS011;20968;42.696;23.360;2023-05-20T12:40:57;7.07;;;1.55;;
34741;SDS011;20968;42.696;23.360;2023-05-20T12:43:22;2.03;;;1.40;;
34741;SDS011;20968;42.696;23.360;2023-05-20T12:45:50;1.48;;;1.30;;
34741;SDS011;20968;42.696;23.360;2023-05-20T12:48:17;5.70;;;1.60;;
34741;SDS011;20968;42.696;23.360;2023-05-20T12:50:45;2.05;;;1.48;;
34741;SDS011;20968;42.696;23.360;2023-05-20T12:53:11;6.45;;;2.00;;
34741;SDS011;20968;42.696;23.360;2023-05-20T12:55:36;4.45;;;2.08;;
34741;SDS011;20968;42.696;23.360;2023-05-20T12:58:03;5.72;;;2.25;;
34741;SDS011;20968;42.696;23.360;2023-05-20T13:00:41;8.73;;;2.10;;
34741;SDS011;20968;42.696;23.360;2023-05-20T13:03:16;4.32;;;2.65;;
34741;SDS011;20968;42.696;23.360;2023-05-20T13:05:44;2.30;;;2.08;;
34741;SDS011;20968;42.696;23.360;2023-05-20T13:08:12;6.13;;;2.47;;
34741;SDS011;20968;42.696;23.360;2023-05-20T13:10:47;4.57;;;3.13;;
34741;SDS011;20968;42.696;23.360;2023-05-20T13:13:33;3.05;;;2.17;;
34741;SDS011;20968;42.696;23.360;2023-05-20T13:16:48;4.03;;;2.22;;
34741;SDS011;20968;42.696;23.360;2023-05-20T13:19:51;5.97;;;2.92;;
34741;SDS011;20968;42.696;23.360;2023-05-20T13:22:41;4.18;;;2.50;;
34741;SDS011;20968;42.696;23.360;2023-05-20T13:25:37;6.63;;;2.83;;
34741;SDS011;20968;42.696;23.360;2023-05-20T13:28:17;4.68;;;2.58;;
34741;SDS011;20968;42.696;23.360;2023-05-20T13:30:45;4.00;;;2.15;;
34741;SDS011;20968;42.696;23.360;2023-05-20T13:33:13;4.25;;;2.70;;
34741;SDS011;20968;42.696;23.360;2023-05-20T13:35:45;3.00;;;2.30;;
34741;SDS011;20968;42.696;23.360;2023-05-20T13:38:13;2.75;;;2.25;;
34741;SDS011;20968;42.696;23.360;2023-05-20T13:40:51;7.40;;;3.17;;
34741;SDS011;20968;42.696;23.360;2023-05-20T13:43:24;4.45;;;2.97;;
34741;SDS011;20968;42.696;23.360;2023-05-20T13:49:38;3.70;;;3.00;;
34741;SDS011;20968;42.696;23.360;2023-05-20T13:52:05;3.78;;;2.80;;
34741;SDS011;20968;42.696;23.360;2023-05-20T13:54:32;4.85;;;3.20;;
34741;SDS011;20968;42.696;23.360;2023-05-20T13:57:00;8.38;;;3.13;;
34741;SDS011;20968;42.696;23.360;2023-05-20T13:59:47;7.68;;;2.70;;
34741;SDS011;20968;42.696;23.360;2023-05-20T14:02:56;8.30;;;2.47;;
34741;SDS011;20968;42.696;23.360;2023-05-20T14:05:24;4.55;;;2.85;;
34741;SDS011;20968;42.696;23.360;2023-05-20T14:08:04;4.70;;;2.38;;
34741;SDS011;20968;42.696;23.360;2023-05-20T14:10:30;7.95;;;5.00;;
34741;SDS011;20968;42.696;23.360;2023-05-20T14:12:56;7.03;;;3.42;;
34741;SDS011;20968;42.696;23.360;2023-05-20T14:18:41;8.35;;;4.05;;
34741;SDS011;20968;42.696;23.360;2023-05-20T14:24:41;3.53;;;2.70;;
34741;SDS011;20968;42.696;23.360;2023-05-20T14:30:41;5.15;;;2.88;;
34741;SDS011;20968;42.696;23.360;2023-05-20T14:33:15;5.15;;;3.40;;
34741;SDS011;20968;42.696;23.360;2023-05-20T14:35:43;4.28;;;2.95;;
34741;SDS011;20968;42.696;23.360;2023-05-20T14:38:25;5.15;;;3.33;;
34741;SDS011;20968;42.696;23.360;2023-05-20T14:43:24;5.88;;;3.03;;
34741;SDS011;20968;42.696;23.360;2023-05-20T14:45:50;7.72;;;2.55;;
34741;SDS011;20968;42.696;23.360;2023-05-20T14:48:32;4.18;;;3.28;;
34741;SDS011;20968;42.696;23.360;2023-05-20T14:53:43;6.05;;;3.67;;
34741;SDS011;20968;42.696;23.360;2023-05-20T14:58:38;6.22;;;3.75;;
34741;SDS011;20968;42.696;23.360;2023-05-20T15:01:14;7.38;;;4.00;;
34741;SDS011;20968;42.696;23.360;2023-05-20T15:03:47;6.80;;;4.03;;
34741;SDS011;20968;42.696;23.360;2023-05-20T15:06:13;4.82;;;3.88;;
34741;SDS011;20968;42.696;23.360;2023-05-20T15:08:44;6.60;;;4.55;;
34741;SDS011;20968;42.696;23.360;2023-05-20T15:11:24;6.32;;;4.00;;
34741;SDS011;20968;42.696;23.360;2023-05-20T15:14:08;6.28;;;4.45;;
34741;SDS011;20968;42.696;23.360;2023-05-20T15:19:38;6.32;;;4.63;;
34741;SDS011;20968;42.696;23.360;2023-05-20T15:22:05;13.13;;;5.82;;
34741;SDS011;20968;42.696;23.360;2023-05-20T15:24:33;6.60;;;4.88;;
34741;SDS011;20968;42.696;23.360;2023-05-20T15:26:58;5.65;;;4.40;;
34741;SDS011;20968;42.696;23.360;2023-05-20T15:29:43;6.90;;;4.78;;
34741;SDS011;20968;42.696;23.360;2023-05-20T15:32:10;12.60;;;5.88;;
34741;SDS011;20968;42.696;23.360;2023-05-20T15:34:41;6.07;;;3.85;;
34741;SDS011;20968;42.696;23.360;2023-05-20T15:37:07;9.77;;;3.90;;
34741;SDS011;20968;42.696;23.360;2023-05-20T15:39:38;3.95;;;3.33;;
34741;SDS011;20968;42.696;23.360;2023-05-20T15:42:10;9.88;;;4.20;;
34741;SDS011;20968;42.696;23.360;2023-05-20T15:44:38;7.57;;;4.10;;
34741;SDS011;20968;42.696;23.360;2023-05-20T15:47:06;5.70;;;3.70;;
34741;SDS011;20968;42.696;23.360;2023-05-20T15:49:32;9.70;;;4.40;;
34741;SDS011;20968;42.696;23.360;2023-05-20T15:51:58;8.65;;;4.28;;
34741;SDS011;20968;42.696;23.360;2023-05-20T15:54:24;6.97;;;4.10;;
34741;SDS011;20968;42.696;23.360;2023-05-20T15:56:50;5.82;;;4.00;;
34741;SDS011;20968;42.696;23.360;2023-05-20T15:59:16;8.48;;;4.18;;
34741;SDS011;20968;42.696;23.360;2023-05-20T16:01:44;6.03;;;3.85;;
34741;SDS011;20968;42.696;23.360;2023-05-20T16:04:17;5.05;;;3.75;;
34741;SDS011;20968;42.696;23.360;2023-05-20T16:07:03;5.20;;;3.95;;
34741;SDS011;20968;42.696;23.360;2023-05-20T16:09:38;8.90;;;3.83;;
34741;SDS011;20968;42.696;23.360;2023-05-20T16:12:11;8.63;;;3.90;;
34741;SDS011;20968;42.696;23.360;2023-05-20T16:14:57;6.07;;;3.78;;
34741;SDS011;20968;42.696;23.360;2023-05-20T16:17:36;7.57;;;3.95;;
34741;SDS011;20968;42.696;23.360;2023-05-20T16:20:09;5.68;;;3.33;;
34741;SDS011;20968;42.696;23.360;2023-05-20T16:22:36;5.97;;;3.90;;
34741;SDS011;20968;42.696;23.360;2023-05-20T16:25:24;7.25;;;3.88;;
34741;SDS011;20968;42.696;23.360;2023-05-20T16:27:52;7.28;;;3.67;;
34741;SDS011;20968;42.696;23.360;2023-05-20T16:30:18;5.28;;;3.95;;
34741;SDS011;20968;42.696;23.360;2023-05-20T16:32:50;8.40;;;3.17;;
34741;SDS011;20968;42.696;23.360;2023-05-20T16:35:17;10.30;;;4.60;;
34741;SDS011;20968;42.696;23.360;2023-05-20T16:37:47;8.25;;;3.70;;
34741;SDS011;20968;42.696;23.360;2023-05-20T16:40:13;6.15;;;4.05;;
34741;SDS011;20968;42.696;23.360;2023-05-20T16:42:38;7.82;;;3.75;;
34741;SDS011;20968;42.696;23.360;2023-05-20T16:45:04;6.55;;;3.65;;
34741;SDS011;20968;42.696;23.360;2023-05-20T16:50:56;11.93;;;4.60;;
34741;SDS011;20968;42.696;23.360;2023-05-20T16:53:41;10.73;;;4.65;;
34741;SDS011;20968;42.696;23.360;2023-05-20T16:58:46;6.45;;;3.65;;
34741;SDS011;20968;42.696;23.360;2023-05-20T17:01:11;14.80;;;4.63;;
34741;SDS011;20968;42.696;23.360;2023-05-20T17:03:38;7.97;;;3.75;;
34741;SDS011;20968;42.696;23.360;2023-05-20T17:06:04;5.47;;;3.85;;
34741;SDS011;20968;42.696;23.360;2023-05-20T17:08:31;5.30;;;3.50;;
34741;SDS011;20968;42.696;23.360;2023-05-20T17:10:57;5.35;;;3.53;;
34741;SDS011;20968;42.696;23.360;2023-05-20T17:13:23;5.43;;;2.78;;
34741;SDS011;20968;42.696;23.360;2023-05-20T17:15:52;4.28;;;3.28;;
34741;SDS011;20968;42.696;23.360;2023-05-20T17:18:17;5.65;;;3.45;;
34741;SDS011;20968;42.696;23.360;2023-05-20T17:20:43;5.53;;;3.13;;
34741;SDS011;20968;42.696;23.360;2023-05-20T17:23:08;6.50;;;3.42;;
34741;SDS011;20968;42.696;23.360;2023-05-20T17:25:33;7.07;;;2.95;;
34741;SDS011;20968;42.696;23.360;2023-05-20T17:30:28;6.07;;;3.55;;
34741;SDS011;20968;42.696;23.360;2023-05-20T17:32:54;4.40;;;2.88;;
34741;SDS011;20968;42.696;23.360;2023-05-20T17:35:22;12.80;;;5.47;;
34741;SDS011;20968;42.696;23.360;2023-05-20T17:37:51;16.08;;;7.63;;
34741;SDS011;20968;42.696;23.360;2023-05-20T17:40:17;7.25;;;5.93;;
34741;SDS011;20968;42.696;23.360;2023-05-20T17:42:50;13.00;;;8.83;;
34741;SDS011;20968;42.696;23.360;2023-05-20T17:45:22;9.05;;;5.88;;
34741;SDS011;20968;42.696;23.360;2023-05-20T17:47:48;12.98;;;8.20;;
34741;SDS011;20968;42.696;23.360;2023-05-20T17:50:15;10.20;;;6.28;;
34741;SDS011;20968;42.696;23.360;2023-05-20T17:52:42;8.43;;;4.78;;
34741;SDS011;20968;42.696;23.360;2023-05-20T17:55:09;14.25;;;4.38;;
34741;SDS011;20968;42.696;23.360;2023-05-20T17:57:38;6.20;;;3.65;;
34741;SDS011;20968;42.696;23.360;2023-05-20T18:00:05;9.10;;;3.67;;
34741;SDS011;20968;42.696;23.360;2023-05-20T18:02:33;9.10;;;4.07;;
34741;SDS011;20968;42.696;23.360;2023-05-20T18:08:48;5.10;;;3.58;;
34741;SDS011;20968;42.696;23.360;2023-05-20T18:11:13;12.95;;;3.60;;
34741;SDS011;20968;42.696;23.360;2023-05-20T18:13:39;9.55;;;3.95;;
34741;SDS011;20968;42.696;23.360;2023-05-20T18:16:05;7.00;;;4.25;;
34741;SDS011;20968;42.696;23.360;2023-05-20T18:18:34;6.20;;;3.90;;
34741;SDS011;20968;42.696;23.360;2023-05-20T18:21:02;6.43;;;3.85;;
34741;SDS011;20968;42.696;23.360;2023-05-20T18:23:31;7.40;;;4.32;;
34741;SDS011;20968;42.696;23.360;2023-05-20T18:25:59;7.10;;;3.88;;
34741;SDS011;20968;42.696;23.360;2023-05-20T18:28:30;5.63;;;3.53;;
34741;SDS011;20968;42.696;23.360;2023-05-20T18:30:56;5.15;;;3.45;;
34741;SDS011;20968;42.696;23.360;2023-05-20T18:33:22;12.30;;;3.78;;
34741;SDS011;20968;42.696;23.360;2023-05-20T18:35:48;7.93;;;3.33;;
34741;SDS011;20968;42.696;23.360;2023-05-20T18:38:16;7.45;;;3.55;;
34741;SDS011;20968;42.696;23.360;2023-05-20T18:40:45;9.77;;;5.05;;
34741;SDS011;20968;42.696;23.360;2023-05-20T18:43:11;9.98;;;5.97;;
34741;SDS011;20968;42.696;23.360;2023-05-20T18:45:37;22.38;;;11.68;;
34741;SDS011;20968;42.696;23.360;2023-05-20T18:48:02;17.20;;;9.38;;
34741;SDS011;20968;42.696;23.360;2023-05-20T18:50:29;28.88;;;10.65;;
34741;SDS011;20968;42.696;23.360;2023-05-20T18:52:55;18.00;;;7.70;;
34741;SDS011;20968;42.696;23.360;2023-05-20T18:55:20;9.60;;;6.20;;
34741;SDS011;20968;42.696;23.360;2023-05-20T18:57:49;19.05;;;7.70;;
34741;SDS011;20968;42.696;23.360;2023-05-20T19:00:18;16.95;;;7.20;;
34741;SDS011;20968;42.696;23.360;2023-05-20T19:02:44;10.27;;;6.07;;
34741;SDS011;20968;42.696;23.360;2023-05-20T19:05:10;11.23;;;6.30;;
34741;SDS011;20968;42.696;23.360;2023-05-20T19:07:36;9.55;;;6.25;;
34741;SDS011;20968;42.696;23.360;2023-05-20T19:10:02;11.98;;;6.50;;
34741;SDS011;20968;42.696;23.360;2023-05-20T19:12:28;14.05;;;7.55;;
34741;SDS011;20968;42.696;23.360;2023-05-20T19:14:56;18.67;;;7.68;;
34741;SDS011;20968;42.696;23.360;2023-05-20T19:17:22;10.00;;;5.70;;
34741;SDS011;20968;42.696;23.360;2023-05-20T19:19:47;8.82;;;5.72;;
34741;SDS011;20968;42.696;23.360;2023-05-20T19:22:13;9.18;;;5.70;;
34741;SDS011;20968;42.696;23.360;2023-05-20T19:24:41;13.55;;;5.15;;
34741;SDS011;20968;42.696;23.360;2023-05-20T19:27:06;14.70;;;4.85;;
34741;SDS011;20968;42.696;23.360;2023-05-20T19:29:31;8.35;;;4.78;;
34741;SDS011;20968;42.696;23.360;2023-05-20T19:31:57;10.38;;;4.38;;
34741;SDS011;20968;42.696;23.360;2023-05-20T19:34:23;9.63;;;6.00;;
34741;SDS011;20968;42.696;23.360;2023-05-20T19:36:49;14.93;;;6.22;;
34741;SDS011;20968;42.696;23.360;2023-05-20T19:39:15;12.95;;;6.43;;
34741;SDS011;20968;42.696;23.360;2023-05-20T19:41:42;12.05;;;6.00;;
34741;SDS011;20968;42.696;23.360;2023-05-20T19:44:07;9.95;;;5.57;;
34741;SDS011;20968;42.696;23.360;2023-05-20T19:46:36;13.52;;;5.13;;
34741;SDS011;20968;42.696;23.360;2023-05-20T19:49:02;8.85;;;5.55;;
34741;SDS011;20968;42.696;23.360;2023-05-20T19:51:27;8.25;;;5.10;;
34741;SDS011;20968;42.696;23.360;2023-05-20T19:53:53;10.73;;;5.65;;
34741;SDS011;20968;42.696;23.360;2023-05-20T19:56:19;34.63;;;14.98;;
34741;SDS011;20968;42.696;23.360;2023-05-20T19:58:55;38.83;;;21.60;;
34741;SDS011;20968;42.696;23.360;2023-05-20T20:01:26;27.13;;;17.27;;
34741;SDS011;20968;42.696;23.360;2023-05-20T20:10:53;8.90;;;4.78;;
34741;SDS011;20968;42.696;23.360;2023-05-20T20:13:19;11.73;;;5.07;;
34741;SDS011;20968;42.696;23.360;2023-05-20T20:15:44;13.73;;;5.03;;
34741;SDS011;20968;42.696;23.360;2023-05-20T20:27:33;7.93;;;4.38;;